»·PEaware :: N323AB KLGB-KSNA

N323AB :: KLGB-KSNA

FLIGHT INFORMATION

Flight Status: Arrived
Operator: Privately registered:
United States
More flights under this callsign
Pilot: Brad W. (6375)
Aircraft: CESSNA 172 SKYHAWK
(C172)
More flights by this aircraft type
Origin: KLGB Long Beach
United States
Destination: KSNA John Wayne-Orange Co
United States
More flights between these airports :: More routes between these airports
Route: SLI
File this flight plan on PilotEdge
Remarks: Request ILS 20R at KSNA
Altitude:
(Current/Filed)
3,000ft
Speed:
(Current/Filed)
140kts
Departed: 19-May-20 11:17 AM
Arrived: 19-May-20 11:47 AM
Distance/Time
Traveled:
16nm/0:30
Distance/Time
To Go:
Arrived

Flight Plot

Page will automatically refresh every two minutes.


Map Options




Map Legend


Flown Route
Filed Route
Departure Airport
Arrival Airport
Navaid (VOR, NDB)
Fix

Horizontal Profiles

Position Reports

Time Latitude Longitude Heading Altitude Ground
Speed
19-May-20 10:43 33.817889 -118.157978 56 49ft 0kts
19-May-20 10:44 33.817889 -118.157978 56 49ft 0kts
19-May-20 10:45 33.817889 -118.157978 56 49ft 0kts
19-May-20 10:46 33.817889 -118.157978 56 49ft 0kts
19-May-20 10:47 33.817889 -118.157978 56 49ft 0kts
19-May-20 10:48 33.817889 -118.157978 56 49ft 0kts
19-May-20 10:49 33.817889 -118.157978 56 49ft 0kts
19-May-20 10:50 33.817889 -118.157978 56 49ft 0kts
19-May-20 10:51 33.817889 -118.157978 56 49ft 0kts
19-May-20 10:52 33.817889 -118.157978 56 49ft 0kts
19-May-20 10:53 33.817889 -118.157978 56 49ft 0kts
19-May-20 10:54 33.817889 -118.157978 56 49ft 0kts
19-May-20 10:55 33.817895 -118.157968 66 49ft 0kts
19-May-20 10:56 33.815628 -118.157288 180 48ft 9kts
19-May-20 10:57 33.814936 -118.154565 89 42ft 18kts
19-May-20 10:58 33.814937 -118.150367 89 37ft 18kts
19-May-20 10:59 33.814524 -118.149273 135 37ft 0kts
19-May-20 11:00 33.814315 -118.149025 135 37ft 10kts
19-May-20 11:01 33.809813 -118.143341 135 30ft 27kts
19-May-20 11:02 33.806440 -118.139157 106 27ft 0kts
19-May-20 11:03 33.806440 -118.139157 106 27ft 0kts
19-May-20 11:04 33.807002 -118.139934 315 27ft 21kts
19-May-20 11:05 33.812355 -118.146543 313 33ft 23kts
19-May-20 11:06 33.812695 -118.146973 314 34ft 0kts
19-May-20 11:07 33.812695 -118.146973 314 34ft 0kts
19-May-20 11:08 33.812865 -118.147213 313 34ft 0kts
19-May-20 11:09 33.812919 -118.147282 313 35ft 0kts
19-May-20 11:10 33.812974 -118.147350 313 35ft 0kts
19-May-20 11:14 33.814645 -118.149409 134 37ft 0kts
19-May-20 11:15 33.813794 -118.149483 266 37ft 15kts
19-May-20 11:16 33.813930 -118.171099 268 631ft 74kts
19-May-20 11:17 33.804459 -118.191570 212 1414ft 87kts
19-May-20 11:18 33.782922 -118.209833 216 2280ft 93kts
19-May-20 11:19 33.761153 -118.226474 211 3237ft 89kts
19-May-20 11:20 33.740473 -118.241929 211 4019ft 99kts
19-May-20 11:21 33.718037 -118.235923 96 4019ft 113kts
19-May-20 11:22 33.717237 -118.197072 90 3756ft 125kts
19-May-20 11:23 33.716818 -118.156045 90 3017ft 109kts
19-May-20 11:24 33.716514 -118.123001 90 3017ft 92kts
19-May-20 11:25 33.716239 -118.091752 90 3018ft 96kts
19-May-20 11:26 33.715952 -118.059334 90 3018ft 98kts
19-May-20 11:27 33.715608 -118.020816 90 3019ft 122kts
19-May-20 11:28 33.736237 -117.989628 41 3018ft 124kts
19-May-20 11:29 33.761888 -117.962201 41 3017ft 124kts
19-May-20 11:30 33.787597 -117.934705 41 2999ft 124kts
19-May-20 11:31 33.813541 -117.906951 41 2999ft 124kts
19-May-20 11:32 33.839355 -117.879326 41 3000ft 124kts
19-May-20 11:33 33.865148 -117.851718 41 3000ft 124kts
19-May-20 11:34 33.891072 -117.823964 41 3000ft 124kts
19-May-20 11:35 33.908170 -117.790855 90 2999ft 124kts
19-May-20 11:36 33.906814 -117.749227 106 2994ft 124kts
19-May-20 11:37 33.876042 -117.739555 205 2998ft 124kts
19-May-20 11:38 33.846019 -117.760122 209 2998ft 120kts
19-May-20 11:39 33.822886 -117.775280 207 3018ft 83kts
19-May-20 11:40 33.801053 -117.789241 207 2704ft 96kts
19-May-20 11:41 33.776916 -117.804625 207 2196ft 96kts
19-May-20 11:42 33.753649 -117.819404 207 1685ft 94kts
19-May-20 11:43 33.730386 -117.834173 207 1170ft 95kts
19-May-20 11:44 33.707024 -117.848995 207 655ft 95kts
19-May-20 11:45 33.683647 -117.863850 208 147ft 95kts
19-May-20 11:46 33.672092 -117.872378 255 60ft 0kts

Navigation Log

Ident Type
Flight plan parsing failed, navigation log unavailable